Time;durP1;ratioP1;P1;durP2;ratioP2;P2;SDS_P1;SDS_P2;PMS_P1;PMS_P2;Temp;Humidity;BMP_temperature;BMP_pressure;BME280_temperature;BME280_humidity;BME280_pressure;Samples;Min_cycle;Max_cycle;Signal;HPM_P1;HPM_P2
2021/05/19 00:00:33;;;;;;;6.90;6.20;;;8.40;99.90;;;;;;5066142;28;20289;-62
2021/05/19 00:02:59;;;;;;;7.30;6.60;;;8.40;99.90;;;;;;5067920;28;20295;-63
2021/05/19 00:05:25;;;;;;;7.53;6.33;;;8.40;99.90;;;;;;5065439;28;20296;-62
2021/05/19 00:07:50;;;;;;;7.77;7.00;;;8.40;99.90;;;;;;5080844;28;20633;-62
2021/05/19 00:10:16;;;;;;;7.60;6.83;;;8.40;99.90;;;;;;5070818;28;20589;-62
2021/05/19 00:12:41;;;;;;;11.37;6.90;;;8.40;99.90;;;;;;5084362;28;20220;-62
2021/05/19 00:15:08;;;;;;;9.47;7.50;;;8.40;99.90;;;;;;5073512;28;20266;-63
2021/05/19 00:17:46;;;;;;;8.00;6.80;;;8.40;99.90;;;;;;5077758;28;20429;-63
2021/05/19 00:20:15;;;;;;;8.47;7.60;;;8.40;99.90;;;;;;5083593;28;20757;-62
2021/05/19 00:22:41;;;;;;;9.77;7.90;;;8.40;99.90;;;;;;5090922;28;20888;-62
2021/05/19 00:25:08;;;;;;;7.77;6.37;;;8.50;99.90;;;;;;5074363;28;20446;-62
2021/05/19 00:27:33;;;;;;;7.80;7.00;;;8.50;99.90;;;;;;5082378;28;21225;-61
2021/05/19 00:29:59;;;;;;;9.00;6.53;;;8.50;99.90;;;;;;5074823;28;20437;-62
2021/05/19 00:32:25;;;;;;;7.67;6.87;;;8.60;99.90;;;;;;5085418;28;20207;-65
2021/05/19 00:34:51;;;;;;;7.07;6.30;;;8.60;99.90;;;;;;5074639;28;20435;-62
2021/05/19 00:37:17;;;;;;;9.30;7.20;;;8.70;99.90;;;;;;5068953;28;20438;-62
2021/05/19 00:39:46;;;;;;;7.73;6.87;;;8.70;99.90;;;;;;5078979;28;20295;-61
2021/05/19 00:42:12;;;;;;;6.77;6.17;;;8.70;99.90;;;;;;5067128;28;20439;-62
2021/05/19 00:44:38;;;;;;;8.60;5.97;;;8.70;99.90;;;;;;5073233;28;20792;-62
2021/05/19 00:47:04;;;;;;;7.07;6.33;;;8.80;99.90;;;;;;5079789;28;20429;-62
2021/05/19 00:49:30;;;;;;;6.43;5.80;;;8.80;99.90;;;;;;5082464;28;20520;-61
2021/05/19 00:51:56;;;;;;;7.90;6.40;;;8.80;99.90;;;;;;5079302;28;20575;-62
2021/05/19 00:54:21;;;;;;;7.40;6.50;;;8.80;99.90;;;;;;5069901;28;20435;-62
2021/05/19 00:56:48;;;;;;;6.90;6.13;;;8.80;99.90;;;;;;5070250;28;20197;-62
2021/05/19 00:59:14;;;;;;;6.33;5.80;;;8.80;99.90;;;;;;5086556;28;20180;-62
2021/05/19 01:01:40;;;;;;;6.47;5.63;;;8.80;99.90;;;;;;5070337;28;20884;-62
2021/05/19 01:04:06;;;;;;;6.23;5.63;;;8.80;99.90;;;;;;5076039;28;20462;-62
2021/05/19 01:11:58;;;;;;;6.63;5.60;;;8.80;99.90;;;;;;5069415;28;20426;-62
2021/05/19 01:14:24;;;;;;;7.27;5.80;;;8.80;99.90;;;;;;5068161;28;20435;-62
2021/05/19 01:16:50;;;;;;;7.67;6.00;;;8.70;99.90;;;;;;5069388;28;20185;-62
2021/05/19 01:19:19;;;;;;;6.33;5.73;;;8.80;99.90;;;;;;5067549;28;20208;-62
2021/05/19 01:21:47;;;;;;;7.17;5.53;;;8.80;99.90;;;;;;5075291;28;20438;-61
2021/05/19 01:24:14;;;;;;;7.07;6.10;;;8.70;99.90;;;;;;5085472;28;20444;-62
2021/05/19 01:26:39;;;;;;;6.43;5.73;;;8.70;99.90;;;;;;5074655;28;20484;-61
2021/05/19 01:29:06;;;;;;;6.67;6.00;;;8.60;99.90;;;;;;5077150;28;20526;-62
2021/05/19 01:31:32;;;;;;;6.97;6.17;;;8.70;99.90;;;;;;5082175;28;20177;-63
2021/05/19 01:33:58;;;;;;;8.50;6.30;;;8.60;99.90;;;;;;5076654;28;20936;-62
2021/05/19 01:36:23;;;;;;;8.37;5.90;;;8.60;99.90;;;;;;5083555;28;20448;-62
2021/05/19 01:38:49;;;;;;;7.20;6.47;;;8.60;99.90;;;;;;5061714;28;20182;-62
2021/05/19 01:41:16;;;;;;;6.47;5.83;;;8.60;99.90;;;;;;5073365;28;20190;-62
2021/05/19 01:43:41;;;;;;;6.87;6.27;;;8.50;99.90;;;;;;5078661;28;20275;-62
2021/05/19 01:46:07;;;;;;;6.20;5.60;;;8.50;99.90;;;;;;5087794;28;20545;-62
2021/05/19 01:48:34;;;;;;;6.93;6.23;;;8.40;99.90;;;;;;5082852;28;20195;-61
2021/05/19 01:51:01;;;;;;;7.40;5.60;;;8.40;99.90;;;;;;5081132;28;20190;-62
2021/05/19 01:53:28;;;;;;;6.67;6.00;;;8.30;99.90;;;;;;5074555;28;20503;-61
2021/05/19 01:55:54;;;;;;;7.07;6.37;;;8.30;99.90;;;;;;5075169;28;20442;-62
2021/05/19 01:58:20;;;;;;;8.20;6.90;;;8.20;99.90;;;;;;5077228;28;20783;-62
2021/05/19 02:00:46;;;;;;;6.97;6.27;;;8.10;99.90;;;;;;5075644;28;20480;-61
2021/05/19 02:03:12;;;;;;;7.60;5.90;;;8.10;99.90;;;;;;5085594;28;20549;-62
2021/05/19 02:05:38;;;;;;;6.60;6.00;;;8.10;99.90;;;;;;5078847;28;20453;-61
2021/05/19 02:08:06;;;;;;;7.70;6.83;;;8.00;99.90;;;;;;5077316;28;20526;-61
2021/05/19 02:10:33;;;;;;;6.70;6.00;;;8.00;99.90;;;;;;5086024;28;20444;-61
2021/05/19 02:13:01;;;;;;;7.00;5.87;;;8.00;99.90;;;;;;5078732;28;20465;-62
2021/05/19 02:15:26;;;;;;;7.50;6.53;;;8.10;99.90;;;;;;5075262;28;20436;-61
2021/05/19 02:17:52;;;;;;;6.50;5.70;;;8.00;99.90;;;;;;5075801;28;20438;-60
2021/05/19 02:20:22;;;;;;;6.20;5.57;;;8.10;99.90;;;;;;5078667;28;20203;-61
2021/05/19 02:22:48;;;;;;;6.80;6.03;;;8.10;99.90;;;;;;5073176;28;20197;-61
2021/05/19 02:25:15;;;;;;;6.67;5.97;;;8.20;99.90;;;;;;5075366;28;20464;-61
2021/05/19 02:27:43;;;;;;;7.50;5.87;;;8.20;99.90;;;;;;5073291;28;20476;-62
2021/05/19 02:30:09;;;;;;;7.60;5.80;;;8.20;99.90;;;;;;5080421;28;20800;-61
2021/05/19 02:32:36;;;;;;;6.20;5.60;;;8.30;99.90;;;;;;5081507;28;20470;-61
2021/05/19 02:35:02;;;;;;;5.93;5.33;;;8.30;99.90;;;;;;5082347;28;20436;-62
2021/05/19 02:37:27;;;;;;;6.53;5.43;;;8.30;99.90;;;;;;5070458;28;20444;-62
2021/05/19 02:39:54;;;;;;;5.63;5.10;;;8.30;99.90;;;;;;5076621;28;20829;-62
2021/05/19 02:42:19;;;;;;;5.97;5.37;;;8.40;99.90;;;;;;5087037;28;20632;-62
2021/05/19 02:44:45;;;;;;;5.87;5.20;;;8.40;99.90;;;;;;5076675;28;20443;-62
2021/05/19 02:47:11;;;;;;;6.10;5.40;;;8.40;99.90;;;;;;5071943;28;21173;-62
2021/05/19 02:49:36;;;;;;;5.20;4.70;;;8.40;99.90;;;;;;5074051;28;20181;-62
2021/05/19 02:52:02;;;;;;;6.37;5.67;;;8.40;99.90;;;;;;5067673;28;20191;-62
2021/05/19 02:54:27;;;;;;;6.40;5.80;;;8.40;99.90;;;;;;5072525;28;20194;-62
2021/05/19 02:56:54;;;;;;;7.53;5.43;;;8.40;99.90;;;;;;5068394;28;20184;-61
2021/05/19 02:59:19;;;;;;;6.47;5.87;;;8.30;99.90;;;;;;5084817;28;20179;-62
2021/05/19 03:01:45;;;;;;;6.93;6.23;;;8.30;99.90;;;;;;5078346;28;20551;-62
2021/05/19 03:04:11;;;;;;;6.10;5.50;;;8.30;99.90;;;;;;5067117;28;20187;-61
2021/05/19 03:06:37;;;;;;;6.63;5.80;;;8.30;99.90;;;;;;5077753;28;21056;-62
2021/05/19 03:09:04;;;;;;;7.23;5.43;;;8.30;99.90;;;;;;5055519;28;20188;-62
2021/05/19 03:11:30;;;;;;;6.10;5.23;;;8.30;99.90;;;;;;5066846;28;20188;-62
2021/05/19 03:13:56;;;;;;;6.17;5.20;;;8.30;99.90;;;;;;5075687;28;20471;-62
2021/05/19 03:16:22;;;;;;;7.00;6.27;;;8.40;99.90;;;;;;5075033;28;20193;-62
2021/05/19 03:18:48;;;;;;;6.60;5.50;;;8.40;99.90;;;;;;5082885;28;20198;-62
2021/05/19 03:21:14;;;;;;;6.40;5.50;;;8.50;99.90;;;;;;5078171;28;20995;-61
2021/05/19 03:23:40;;;;;;;6.03;5.40;;;8.50;99.90;;;;;;5072899;28;20217;-62
2021/05/19 03:26:05;;;;;;;6.30;5.70;;;8.50;99.90;;;;;;5076323;28;20596;-62
2021/05/19 03:28:31;;;;;;;5.90;5.30;;;8.60;99.90;;;;;;5076935;28;20442;-62
2021/05/19 03:30:57;;;;;;;6.30;5.70;;;8.60;99.90;;;;;;5073983;28;20280;-61
2021/05/19 03:33:23;;;;;;;5.63;5.10;;;8.70;99.90;;;;;;5079184;28;20231;-61
2021/05/19 03:35:48;;;;;;;5.57;5.00;;;8.60;99.90;;;;;;5081004;28;20187;-61
2021/05/19 03:38:14;;;;;;;5.00;4.50;;;8.60;99.90;;;;;;5069491;28;20481;-61
2021/05/19 03:40:40;;;;;;;5.63;4.83;;;8.60;99.90;;;;;;5074499;28;20427;-61
2021/05/19 03:43:06;;;;;;;5.47;4.87;;;8.70;99.90;;;;;;5082117;28;20531;-62
2021/05/19 03:45:32;;;;;;;5.87;5.27;;;8.70;99.90;;;;;;5081072;28;20226;-61
2021/05/19 03:47:58;;;;;;;5.27;4.77;;;8.70;99.90;;;;;;5085697;28;20810;-61
2021/05/19 03:50:28;;;;;;;6.10;5.50;;;8.80;99.90;;;;;;5080344;28;20463;-61
2021/05/19 03:52:54;;;;;;;5.30;4.80;;;8.70;99.90;;;;;;5069092;28;20216;-62
2021/05/19 03:55:20;;;;;;;6.40;5.80;;;8.80;99.90;;;;;;5070439;28;20495;-62
2021/05/19 03:57:46;;;;;;;5.67;5.07;;;8.80;99.90;;;;;;5076191;28;20429;-62
2021/05/19 04:00:16;;;;;;;6.20;4.90;;;8.90;99.90;;;;;;5072352;28;20482;-62
2021/05/19 04:02:48;;;;;;;5.60;4.90;;;8.90;99.90;;;;;;5080798;28;20241;-61
2021/05/19 04:05:15;;;;;;;5.20;4.67;;;8.90;99.90;;;;;;5069574;28;20455;-61
2021/05/19 04:07:40;;;;;;;5.70;5.10;;;8.90;99.90;;;;;;5071339;28;20496;-62
2021/05/19 04:10:06;;;;;;;6.60;5.43;;;8.90;99.90;;;;;;5069647;28;20454;-62
2021/05/19 04:12:32;;;;;;;6.20;5.60;;;9.00;99.90;;;;;;5079217;28;20219;-62
2021/05/19 04:14:57;;;;;;;5.67;5.10;;;8.90;99.90;;;;;;5078390;28;20185;-63
2021/05/19 04:17:23;;;;;;;5.60;5.10;;;8.90;99.90;;;;;;5076198;28;20187;-63
2021/05/19 04:19:48;;;;;;;6.60;5.50;;;9.00;99.90;;;;;;5065707;28;21058;-63
2021/05/19 04:22:14;;;;;;;6.20;5.20;;;9.10;99.90;;;;;;5082536;28;20192;-63
2021/05/19 04:24:39;;;;;;;6.20;5.40;;;9.20;99.90;;;;;;5067332;28;20194;-63
2021/05/19 04:27:05;;;;;;;5.70;5.10;;;9.20;99.90;;;;;;5076725;28;20191;-63
2021/05/19 04:29:31;;;;;;;5.30;4.80;;;9.20;99.90;;;;;;5063277;28;20185;-61
2021/05/19 04:31:56;;;;;;;5.53;5.03;;;9.30;99.90;;;;;;5081526;28;20430;-62
2021/05/19 04:34:22;;;;;;;4.80;4.30;;;9.30;99.90;;;;;;5073075;28;20235;-63
2021/05/19 04:36:47;;;;;;;5.73;5.13;;;9.40;99.90;;;;;;5082687;28;20177;-63
2021/05/19 04:39:13;;;;;;;4.90;4.40;;;9.50;99.90;;;;;;5079256;28;20264;-63
2021/05/19 04:41:38;;;;;;;5.30;4.80;;;9.50;99.90;;;;;;5081530;28;20631;-62
2021/05/19 04:44:04;;;;;;;5.00;4.30;;;9.60;99.90;;;;;;5070618;28;20195;-62
2021/05/19 04:46:29;;;;;;;6.20;4.80;;;9.60;99.90;;;;;;5083032;28;20272;-63
2021/05/19 04:48:59;;;;;;;5.13;4.63;;;9.80;99.90;;;;;;5074117;28;20185;-62
2021/05/19 04:51:28;;;;;;;5.33;4.83;;;9.80;99.90;;;;;;5087462;28;20191;-62
2021/05/19 04:53:54;;;;;;;5.70;4.80;;;9.80;99.90;;;;;;5075404;28;20463;-62
2021/05/19 04:56:19;;;;;;;5.50;4.80;;;9.80;99.90;;;;;;5073498;28;20777;-62
2021/05/19 04:58:45;;;;;;;6.10;5.53;;;9.90;99.90;;;;;;5089182;28;20462;-63
2021/05/19 05:01:11;;;;;;;5.30;4.60;;;9.90;99.90;;;;;;5066223;28;20232;-63
2021/05/19 05:03:36;;;;;;;4.97;4.57;;;10.00;99.90;;;;;;5086216;28;20234;-63
2021/05/19 05:06:02;;;;;;;5.07;4.60;;;10.10;99.90;;;;;;5080244;28;20267;-62
2021/05/19 05:08:27;;;;;;;5.17;4.67;;;10.20;99.90;;;;;;5064634;28;20944;-60
2021/05/19 05:10:53;;;;;;;5.40;4.90;;;10.30;99.90;;;;;;5076481;28;20214;-61
2021/05/19 05:13:19;;;;;;;5.50;4.47;;;10.40;99.90;;;;;;5069008;28;20205;-62
2021/05/19 05:15:44;;;;;;;5.27;4.77;;;10.50;99.90;;;;;;5068474;28;20181;-62
2021/05/19 05:18:10;;;;;;;5.30;4.80;;;10.50;99.90;;;;;;5069874;28;20174;-62
2021/05/19 05:20:35;;;;;;;5.67;4.80;;;10.50;99.90;;;;;;5068178;28;20186;-62
2021/05/19 05:23:01;;;;;;;5.70;5.20;;;10.60;99.90;;;;;;5069824;28;20181;-62
2021/05/19 05:25:26;;;;;;;7.10;5.67;;;10.70;99.90;;;;;;5068707;28;20635;-62
2021/05/19 05:27:54;;;;;;;6.13;5.53;;;10.80;99.90;;;;;;5068608;28;20197;-64
2021/05/19 05:30:20;;;;;;;6.83;5.70;;;10.90;99.90;;;;;;5069875;28;20165;-61
2021/05/19 05:32:45;;;;;;;6.20;5.60;;;11.00;99.90;;;;;;5069836;28;20797;-62
2021/05/19 05:35:12;;;;;;;5.93;5.43;;;11.00;99.90;;;;;;5068465;28;20520;-62
2021/05/19 05:37:38;;;;;;;7.00;5.70;;;11.10;99.90;;;;;;5069486;28;20251;-62
2021/05/19 05:40:05;;;;;;;6.77;6.07;;;11.20;99.90;;;;;;5068717;28;20495;-62
2021/05/19 05:42:30;;;;;;;6.33;5.73;;;11.30;99.90;;;;;;5071340;28;20422;-63
2021/05/19 05:44:56;;;;;;;6.70;6.10;;;11.30;99.90;;;;;;5067917;28;20777;-61
2021/05/19 05:47:21;;;;;;;6.50;5.90;;;11.30;99.90;;;;;;5071855;28;20593;-62
2021/05/19 05:49:49;;;;;;;6.90;5.80;;;11.40;99.90;;;;;;5081267;28;20181;-61
2021/05/19 05:52:15;;;;;;;8.87;6.63;;;11.40;99.90;;;;;;5072006;28;20188;-60
2021/05/19 05:54:40;;;;;;;6.80;6.17;;;11.40;99.90;;;;;;5077598;28;20457;-61
2021/05/19 05:57:07;;;;;;;6.03;5.50;;;11.50;99.90;;;;;;5083064;28;20239;-62
2021/05/19 05:59:33;;;;;;;6.60;6.00;;;11.60;99.90;;;;;;5068086;28;20188;-62
2021/05/19 06:01:58;;;;;;;6.50;5.90;;;11.70;99.90;;;;;;5069129;28;20415;-62
2021/05/19 06:04:24;;;;;;;6.03;5.43;;;11.70;99.90;;;;;;5073325;28;20196;-61
2021/05/19 06:06:49;;;;;;;7.63;6.93;;;11.90;99.90;;;;;;5074771;28;20265;-62
2021/05/19 06:09:15;;;;;;;7.20;6.50;;;12.10;99.90;;;;;;5068652;28;20189;-62
2021/05/19 06:11:41;;;;;;;8.40;7.60;;;12.30;99.90;;;;;;5067680;28;20181;-62
2021/05/19 06:14:06;;;;;;;10.83;6.93;;;12.70;99.90;;;;;;5067122;28;20189;-62
2021/05/19 06:16:32;;;;;;;7.40;6.70;;;12.90;99.90;;;;;;5063861;28;20196;-65
2021/05/19 06:18:57;;;;;;;8.03;7.17;;;13.10;99.90;;;;;;5068777;28;20990;-65
2021/05/19 06:21:23;;;;;;;8.27;7.17;;;13.20;99.90;;;;;;5068355;28;20180;-63
2021/05/19 06:23:49;;;;;;;7.90;7.10;;;13.50;91.60;;;;;;5068714;28;20773;-63
2021/05/19 06:26:14;;;;;;;8.40;7.60;;;13.60;81.20;;;;;;5068283;28;20181;-63
2021/05/19 06:28:40;;;;;;;8.07;7.27;;;13.50;53.90;;;;;;5068660;28;20180;-63
2021/05/19 06:31:06;;;;;;;9.20;8.30;;;13.50;59.10;;;;;;5067956;28;20557;-62
2021/05/19 06:33:31;;;;;;;8.90;8.00;;;13.20;81.50;;;;;;5067235;28;20237;-63
2021/05/19 06:35:57;;;;;;;10.07;8.30;;;13.30;83.60;;;;;;5068523;28;20175;-63
2021/05/19 06:38:22;;;;;;;8.70;7.90;;;13.30;78.30;;;;;;5068027;28;20962;-63
2021/05/19 06:40:48;;;;;;;9.70;8.80;;;13.40;64.10;;;;;;5068250;28;20581;-63
2021/05/19 06:43:13;;;;;;;9.10;8.20;;;13.50;63.00;;;;;;5068558;28;20296;-63
2021/05/19 06:45:39;;;;;;;10.20;9.10;;;13.40;56.80;;;;;;5069000;28;20188;-64
2021/05/19 06:48:05;;;;;;;10.03;9.13;;;13.50;51.50;;;;;;5070417;28;20205;-63
2021/05/19 06:50:31;;;;;;;10.57;9.57;;;13.50;56.60;;;;;;5070367;28;20184;-64
2021/05/19 06:52:57;;;;;;;11.03;8.70;;;13.70;37.70;;;;;;5074669;28;20502;-61
2021/05/19 06:55:23;;;;;;;11.00;9.90;;;13.60;44.20;;;;;;5069315;28;20240;-66
2021/05/19 06:57:49;;;;;;;10.90;9.77;;;13.60;36.70;;;;;;5078458;28;20637;-63
2021/05/19 07:00:15;;;;;;;10.00;9.00;;;13.60;36.00;;;;;;5072313;28;20529;-63
2021/05/19 07:02:40;;;;;;;10.30;9.30;;;13.50;32.40;;;;;;5085003;28;20263;-61
2021/05/19 07:05:08;;;;;;;9.53;8.63;;;13.40;34.00;;;;;;5075966;28;20492;-62
2021/05/19 07:07:33;;;;;;;10.20;9.20;;;13.40;52.30;;;;;;5071853;28;20214;-63
2021/05/19 07:09:59;;;;;;;10.17;9.10;;;13.30;47.10;;;;;;5082856;28;20502;-63
2021/05/19 07:12:24;;;;;;;10.90;9.80;;;13.30;48.80;;;;;;5072071;28;20888;-65
2021/05/19 07:14:51;;;;;;;10.43;9.50;;;13.40;45.50;;;;;;5071625;28;20232;-65
2021/05/19 07:17:16;;;;;;;11.10;10.00;;;13.40;45.90;;;;;;5072119;28;20169;-65
2021/05/19 07:19:42;;;;;;;10.53;9.43;;;13.50;52.80;;;;;;5070075;28;20484;-65
2021/05/19 07:22:08;;;;;;;10.20;9.20;;;13.60;49.90;;;;;;5070993;28;20210;-62
2021/05/19 07:24:34;;;;;;;11.40;9.37;;;13.60;44.20;;;;;;5071012;28;20417;-62
2021/05/19 07:27:00;;;;;;;10.43;9.43;;;13.60;31.10;;;;;;5063405;28;20190;-62
2021/05/19 07:29:25;;;;;;;10.40;9.40;;;13.60;32.40;;;;;;5057479;28;20437;-62
2021/05/19 07:31:51;;;;;;;10.00;9.00;;;13.70;32.40;;;;;;5059730;28;20277;-61
2021/05/19 07:34:17;;;;;;;10.23;8.97;;;13.60;33.80;;;;;;5066726;28;20202;-62
2021/05/19 07:36:43;;;;;;;10.00;8.90;;;13.60;36.70;;;;;;5070750;28;20670;-61
2021/05/19 07:39:09;;;;;;;6.87;6.27;;;13.40;38.10;;;;;;5070870;28;20415;-63
2021/05/19 07:41:34;;;;;;;7.10;6.40;;;13.40;23.10;;;;;;5070492;28;20774;-62
2021/05/19 07:44:00;;;;;;;5.73;5.23;;;13.40;24.20;;;;;;5071609;28;20722;-65
2021/05/19 07:46:25;;;;;;;5.50;5.03;;;13.20;17.40;;;;;;5072316;28;20180;-62
2021/05/19 07:48:51;;;;;;;5.90;5.37;;;13.00;22.00;;;;;;5070527;28;20189;-64
2021/05/19 07:51:17;;;;;;;6.60;5.33;;;12.90;24.80;;;;;;5070722;28;20189;-63
2021/05/19 07:53:43;;;;;;;6.30;5.70;;;12.80;44.10;;;;;;5070127;28;20203;-64
2021/05/19 07:56:21;;;;;;;6.47;5.87;;;12.80;45.90;;;;;;5071546;28;20181;-60
2021/05/19 07:58:58;;;;;;;6.83;6.13;;;12.70;51.40;;;;;;5070634;28;20986;-65
2021/05/19 08:04:07;;;;;;;10.23;8.30;;;12.50;68.50;;;;;;5072663;28;21159;-63
2021/05/19 08:06:35;;;;;;;9.30;8.40;;;12.30;75.00;;;;;;5069673;28;20423;-64
2021/05/19 08:09:00;;;;;;;9.43;8.50;;;12.20;88.40;;;;;;5070799;28;20468;-64
2021/05/19 08:11:26;;;;;;;8.60;7.80;;;12.10;99.80;;;;;;5069940;28;21168;-64
2021/05/19 08:13:51;;;;;;;8.60;7.67;;;11.90;99.90;;;;;;5069861;28;20197;-64
2021/05/19 08:16:17;;;;;;;9.40;8.33;;;11.80;99.90;;;;;;5070193;28;20196;-62
2021/05/19 08:18:43;;;;;;;12.40;8.43;;;11.70;99.90;;;;;;5071042;28;20169;-64
2021/05/19 08:21:10;;;;;;;10.90;8.60;;;11.50;99.90;;;;;;5069693;28;20552;-62
2021/05/19 08:23:36;;;;;;;10.00;9.00;;;11.50;99.90;;;;;;5069297;28;20420;-64
2021/05/19 08:26:06;;;;;;;9.17;8.20;;;11.40;99.90;;;;;;5081345;28;20418;-61
2021/05/19 08:28:36;;;;;;;8.73;7.77;;;11.30;99.90;;;;;;5078907;28;20420;-62
2021/05/19 08:31:03;;;;;;;8.03;7.27;;;11.20;99.90;;;;;;5065630;28;20519;-62
2021/05/19 08:33:28;;;;;;;9.80;8.80;;;11.20;99.90;;;;;;5069310;28;20455;-62
2021/05/19 08:35:54;;;;;;;8.57;7.77;;;11.10;99.90;;;;;;5083882;28;20480;-61
2021/05/19 08:38:20;;;;;;;8.67;7.73;;;11.00;99.90;;;;;;5079597;28;20181;-62
2021/05/19 08:40:45;;;;;;;8.90;7.80;;;11.00;99.90;;;;;;5071062;28;20431;-62
2021/05/19 08:43:12;;;;;;;8.67;7.80;;;10.90;99.90;;;;;;5068308;28;20193;-62
2021/05/19 08:45:38;;;;;;;8.60;7.70;;;10.90;99.90;;;;;;5068671;28;20212;-62
2021/05/19 08:48:05;;;;;;;9.40;7.83;;;10.90;99.90;;;;;;5062058;28;20431;-61
2021/05/19 08:50:32;;;;;;;8.43;7.60;;;10.80;99.90;;;;;;5069417;28;20430;-63
2021/05/19 08:52:59;;;;;;;8.60;7.70;;;10.80;99.90;;;;;;5067717;28;20455;-62
2021/05/19 08:55:26;;;;;;;8.27;7.17;;;10.80;99.90;;;;;;5068928;28;20429;-62
2021/05/19 08:57:52;;;;;;;8.20;7.33;;;10.80;99.90;;;;;;5068095;28;21227;-62
2021/05/19 09:00:19;;;;;;;9.00;8.10;;;10.90;99.90;;;;;;5068218;28;20459;-62
2021/05/19 09:03:13;;;;;;;8.60;7.70;;;10.90;99.90;;;;;;5066924;28;20431;-62
2021/05/19 09:05:42;;;;;;;8.07;7.17;;;10.90;99.90;;;;;;5068504;28;20736;-62
2021/05/19 09:08:19;;;;;;;8.83;7.97;;;10.90;99.90;;;;;;5067397;28;20419;-63
2021/05/19 09:10:57;;;;;;;10.60;7.90;;;10.90;99.90;;;;;;5068562;28;20425;-63
2021/05/19 09:13:48;;;;;;;9.97;8.03;;;10.90;99.90;;;;;;5068473;28;20492;-63
2021/05/19 09:16:29;;;;;;;9.00;7.90;;;11.00;99.90;;;;;;5068294;28;20428;-62
2021/05/19 09:18:56;;;;;;;10.10;7.90;;;11.10;99.90;;;;;;5066400;28;20430;-63
2021/05/19 09:21:42;;;;;;;7.73;6.93;;;11.10;99.90;;;;;;5068700;28;20432;-62
2021/05/19 09:24:11;;;;;;;8.30;7.50;;;11.10;99.90;;;;;;5064832;28;20860;-62
2021/05/19 09:26:54;;;;;;;7.70;6.90;;;11.20;99.90;;;;;;5070106;28;20755;-62
2021/05/19 09:29:24;;;;;;;8.53;7.63;;;11.30;99.90;;;;;;5071748;28;20949;-62
2021/05/19 09:32:10;;;;;;;8.37;7.20;;;11.40;99.90;;;;;;5086039;28;20537;-63
2021/05/19 09:34:38;;;;;;;8.87;7.70;;;11.50;99.90;;;;;;5088468;28;21017;-62
2021/05/19 09:37:25;;;;;;;7.60;6.90;;;11.80;99.90;;;;;;5062540;28;20513;-60
2021/05/19 09:39:59;;;;;;;7.50;6.80;;;12.10;99.90;;;;;;5083179;28;20428;-63
2021/05/19 09:42:40;;;;;;;7.70;6.90;;;12.30;99.90;;;;;;5083883;28;20461;-63
2021/05/19 09:45:41;;;;;;;10.60;6.27;;;12.60;99.90;;;;;;5079258;28;20503;-61
2021/05/19 09:48:07;;;;;;;6.47;5.87;;;12.90;99.90;;;;;;5071975;28;20415;-61
2021/05/19 09:50:35;;;;;;;6.53;5.83;;;13.00;99.90;;;;;;5081931;28;21356;-62
2021/05/19 09:53:13;;;;;;;5.73;5.20;;;13.20;99.90;;;;;;5069377;28;21011;-62
2021/05/19 09:55:41;;;;;;;6.63;6.03;;;13.20;99.90;;;;;;5087637;28;20433;-63
2021/05/19 09:58:08;;;;;;;6.50;5.90;;;13.20;99.90;;;;;;5073306;28;20435;-62
2021/05/19 10:00:35;;;;;;;6.07;5.50;;;13.30;99.90;;;;;;5086489;28;20563;-62
2021/05/19 10:03:01;;;;;;;6.00;5.40;;;13.30;99.90;;;;;;5073652;28;20437;-62
2021/05/19 10:05:37;;;;;;;5.10;4.60;;;13.40;99.90;;;;;;5073099;28;20463;-62
2021/05/19 10:08:03;;;;;;;5.10;4.17;;;13.50;99.90;;;;;;5084548;28;20437;-62
2021/05/19 10:10:29;;;;;;;4.03;3.73;;;13.50;99.90;;;;;;5068216;28;20773;-62
2021/05/19 10:12:55;;;;;;;4.07;3.77;;;13.70;99.90;;;;;;5075395;28;20381;-62
2021/05/19 10:15:28;;;;;;;4.87;4.37;;;14.00;99.90;;;;;;5071610;28;20187;-62
2021/05/19 10:18:01;;;;;;;4.70;4.30;;;14.10;76.50;;;;;;5069605;28;20295;-62
2021/05/19 10:20:32;;;;;;;7.20;6.50;;;14.20;97.60;;;;;;5076763;28;20472;-62
2021/05/19 10:22:58;;;;;;;5.67;4.40;;;14.50;53.10;;;;;;5067339;28;20431;-63
2021/05/19 10:25:42;;;;;;;3.63;3.33;;;14.60;61.30;;;;;;5066860;28;20423;-62
2021/05/19 10:28:13;;;;;;;4.00;3.70;;;14.80;29.40;;;;;;5067537;28;20910;-62
2021/05/19 10:30:51;;;;;;;4.00;3.70;;;14.80;45.00;;;;;;5067973;28;20446;-62
2021/05/19 10:33:32;;;;;;;3.70;3.40;;;15.10;60.70;;;;;;5069390;28;20455;-62
2021/05/19 10:36:00;;;;;;;4.47;4.07;;;15.40;9.10;;;;;;5070352;28;20426;-62
2021/05/19 10:38:36;;;;;;;4.00;3.70;;;15.30;16.40;;;;;;5070459;28;20419;-62
2021/05/19 10:41:03;;;;;;;6.40;4.03;;;15.40;7.10;;;;;;5071069;28;21118;-61
2021/05/19 10:43:53;;;;;;;4.40;4.00;;;15.40;1.00;;;;;;5071460;28;20435;-62
2021/05/19 10:46:53;;;;;;;3.90;3.60;;;15.20;8.60;;;;;;5071962;28;20470;-62
2021/05/19 10:49:19;;;;;;;4.60;4.20;;;15.20;35.60;;;;;;5072130;28;20422;-62
2021/05/19 10:57:55;;;;;;;5.10;4.70;;;15.60;23.90;;;;;;5068492;28;20410;-62
2021/05/19 11:00:23;;;;;;;5.63;4.73;;;15.70;1.00;;;;;;5069462;28;20483;-62
2021/05/19 11:05:23;;;;;;;5.20;4.80;;;15.60;1.00;;;;;;5070055;28;20425;-63
2021/05/19 11:08:07;;;;;;;6.60;6.07;;;15.50;1.00;;;;;;5068022;28;20408;-63
2021/05/19 11:10:33;;;;;;;7.27;6.57;;;15.00;4.20;;;;;;5069190;28;20834;-63
2021/05/19 11:12:58;;;;;;;6.30;5.70;;;14.80;22.60;;;;;;5071308;28;20467;-62
2021/05/19 11:21:03;;;;;;;5.57;5.07;;;14.30;3.10;;;;;;5071168;28;20976;-63
2021/05/19 11:23:29;;;;;;;6.00;5.47;;;14.00;10.70;;;;;;5071234;28;20477;-63
2021/05/19 11:26:11;;;;;;;5.00;4.60;;;13.90;41.20;;;;;;5074305;28;20440;-61
2021/05/19 11:28:39;;;;;;;4.60;4.23;;;13.90;45.80;;;;;;5069215;28;21001;-62
2021/05/19 11:31:16;;;;;;;4.10;3.80;;;14.00;1.00;;;;;;5078343;28;20423;-62
2021/05/19 11:33:56;;;;;;;4.93;4.53;;;13.90;14.10;;;;;;5091222;28;20526;-63
2021/05/19 11:36:41;;;;;;;4.70;4.30;;;14.00;6.90;;;;;;5091431;28;20763;-62
2021/05/19 11:39:32;;;;;;;4.43;3.90;;;13.90;1.00;;;;;;5062354;28;20421;-62
2021/05/19 11:42:24;;;;;;;4.47;4.07;;;13.90;21.60;;;;;;5069888;28;20544;-64
2021/05/19 11:44:53;;;;;;;3.43;3.17;;;13.90;13.00;;;;;;5068530;28;20426;-62
2021/05/19 11:47:38;;;;;;;3.70;3.40;;;14.00;1.00;;;;;;5069332;28;20451;-63
2021/05/19 11:50:19;;;;;;;2.80;2.60;;;14.30;1.00;;;;;;5070919;28;20965;-63
2021/05/19 11:52:47;;;;;;;3.97;3.67;;;14.90;1.00;;;;;;5071645;28;20967;-63
2021/05/19 11:55:32;;;;;;;3.40;3.10;;;15.30;1.00;;;;;;5071657;28;21131;-62
2021/05/19 11:58:24;;;;;;;3.60;3.30;;;15.80;1.00;;;;;;5069371;28;20891;-63
2021/05/19 12:01:10;;;;;;;3.33;3.13;;;16.80;1.00;;;;;;5069991;28;20589;-63
2021/05/19 12:03:37;;;;;;;3.50;3.20;;;17.60;1.00;;;;;;5078350;28;20430;-63
2021/05/19 12:06:05;;;;;;;4.07;3.37;;;18.40;1.00;;;;;;5072764;28;20438;-63
2021/05/19 12:08:33;;;;;;;3.83;3.53;;;19.40;1.00;;;;;;5085218;28;20426;-62
2021/05/19 12:11:05;;;;;;;4.10;3.80;;;20.70;1.00;;;;;;5085202;28;20427;-61
2021/05/19 12:13:34;;;;;;;4.53;4.23;;;21.20;99.90;;;;;;5072952;28;20481;-62
2021/05/19 12:16:00;;;;;;;4.40;4.10;;;20.90;1.00;;;;;;5069653;28;20416;-62
2021/05/19 12:18:26;;;;;;;4.13;3.83;;;20.50;99.90;;;;;;5071393;28;20477;-62
2021/05/19 12:20:51;;;;;;;3.87;3.57;;;20.30;99.90;;;;;;5067958;28;20200;-62
2021/05/19 12:23:17;;;;;;;4.73;4.40;;;20.30;99.90;;;;;;5083191;28;20180;-62
2021/05/19 12:25:45;;;;;;;4.53;4.23;;;20.10;99.90;;;;;;5074933;28;20238;-63
2021/05/19 12:28:20;;;;;;;3.90;3.60;;;19.30;23.80;;;;;;5090320;28;20425;-62
2021/05/19 12:30:48;;;;;;;4.43;4.13;;;18.70;99.90;;;;;;5067668;28;20457;-61
2021/05/19 12:33:17;;;;;;;3.80;3.60;;;18.30;99.90;;;;;;5075381;28;20456;-62
2021/05/19 12:35:45;;;;;;;4.20;3.90;;;17.70;1.00;;;;;;5088484;28;20476;-63
2021/05/19 12:38:11;;;;;;;4.50;4.20;;;16.60;1.00;;;;;;5084596;28;20506;-65
2021/05/19 12:40:39;;;;;;;4.10;3.80;;;15.60;1.00;;;;;;5066861;28;20530;-66
2021/05/19 12:43:09;;;;;;;3.73;3.43;;;14.50;1.00;;;;;;5069836;28;20793;-64
2021/05/19 12:45:42;;;;;;;4.43;3.43;;;13.70;29.90;;;;;;5073468;28;20422;-64
2021/05/19 12:48:14;;;;;;;3.77;3.47;;;13.20;69.70;;;;;;5069754;28;20853;-65
2021/05/19 12:50:44;;;;;;;4.10;3.73;;;12.80;95.40;;;;;;5087624;28;20403;-66
2021/05/19 12:53:29;;;;;;;4.40;4.00;;;12.50;99.90;;;;;;5089227;28;20469;-64
2021/05/19 12:56:11;;;;;;;4.00;3.70;;;12.40;99.90;;;;;;5084226;28;20513;-64
2021/05/19 12:58:48;;;;;;;5.03;4.63;;;12.20;96.20;;;;;;5089402;28;20419;-64
2021/05/19 13:01:14;;;;;;;4.50;4.10;;;12.10;99.90;;;;;;5089115;28;20473;-63
2021/05/19 13:03:40;;;;;;;4.30;3.90;;;12.00;93.20;;;;;;5075445;28;20436;-60
2021/05/19 13:06:07;;;;;;;4.80;4.37;;;11.80;93.80;;;;;;5078800;28;20186;-62
2021/05/19 13:08:33;;;;;;;5.20;4.70;;;11.60;99.90;;;;;;5067901;28;20435;-62
2021/05/19 13:11:00;;;;;;;5.77;5.07;;;11.60;99.90;;;;;;5071621;28;21222;-62
2021/05/19 13:16:12;;;;;;;5.73;5.10;;;11.90;99.90;;;;;;5076533;28;20986;-63
2021/05/19 13:18:57;;;;;;;7.10;6.40;;;12.00;99.90;;;;;;5069037;28;20481;-63
2021/05/19 13:21:34;;;;;;;6.60;6.00;;;12.20;99.90;;;;;;5069622;28;20431;-62